sensor_id;sensor_type;location;lat;lon;timestamp;P1;durP1;ratioP1;P2;durP2;ratioP2
8982;SDS011;20979;59.850;10.660;2023-05-02T00:01:58;1.43;;;1.20;;
8982;SDS011;20979;59.850;10.660;2023-05-02T00:04:25;2.00;;;1.30;;
8982;SDS011;20979;59.850;10.660;2023-05-02T00:06:52;1.23;;;1.13;;
8982;SDS011;20979;59.850;10.660;2023-05-02T00:09:20;2.20;;;1.37;;
8982;SDS011;20979;59.850;10.660;2023-05-02T00:11:47;1.40;;;1.30;;
8982;SDS011;20979;59.850;10.660;2023-05-02T00:14:16;2.00;;;1.37;;
8982;SDS011;20979;59.850;10.660;2023-05-02T00:16:43;1.30;;;1.20;;
8982;SDS011;20979;59.850;10.660;2023-05-02T00:19:11;1.07;;;1.03;;
8982;SDS011;20979;59.850;10.660;2023-05-02T00:21:38;3.20;;;1.43;;
8982;SDS011;20979;59.850;10.660;2023-05-02T00:24:06;1.07;;;1.07;;
8982;SDS011;20979;59.850;10.660;2023-05-02T00:26:33;1.40;;;1.30;;
8982;SDS011;20979;59.850;10.660;2023-05-02T00:29:00;1.53;;;1.30;;
8982;SDS011;20979;59.850;10.660;2023-05-02T00:31:29;1.00;;;1.00;;
8982;SDS011;20979;59.850;10.660;2023-05-02T00:33:56;1.53;;;1.20;;
8982;SDS011;20979;59.850;10.660;2023-05-02T00:36:24;1.33;;;1.23;;
8982;SDS011;20979;59.850;10.660;2023-05-02T00:38:52;2.33;;;1.50;;
8982;SDS011;20979;59.850;10.660;2023-05-02T00:41:19;1.53;;;1.43;;
8982;SDS011;20979;59.850;10.660;2023-05-02T00:43:46;1.00;;;1.00;;
8982;SDS011;20979;59.850;10.660;2023-05-02T00:46:14;1.30;;;1.20;;
8982;SDS011;20979;59.850;10.660;2023-05-02T00:48:43;2.13;;;1.20;;
8982;SDS011;20979;59.850;10.660;2023-05-02T00:51:10;1.67;;;0.97;;
8982;SDS011;20979;59.850;10.660;2023-05-02T00:53:38;1.43;;;1.10;;
8982;SDS011;20979;59.850;10.660;2023-05-02T00:56:06;1.07;;;1.03;;
8982;SDS011;20979;59.850;10.660;2023-05-02T00:58:34;1.80;;;1.27;;
8982;SDS011;20979;59.850;10.660;2023-05-02T01:01:05;1.13;;;1.13;;
8982;SDS011;20979;59.850;10.660;2023-05-02T01:03:37;1.27;;;1.17;;
8982;SDS011;20979;59.850;10.660;2023-05-02T01:06:10;2.20;;;1.20;;
8982;SDS011;20979;59.850;10.660;2023-05-02T01:08:44;1.50;;;1.40;;
8982;SDS011;20979;59.850;10.660;2023-05-02T01:11:13;2.87;;;1.40;;
8982;SDS011;20979;59.850;10.660;2023-05-02T01:13:41;2.10;;;1.43;;
8982;SDS011;20979;59.850;10.660;2023-05-02T01:16:10;1.90;;;1.30;;
8982;SDS011;20979;59.850;10.660;2023-05-02T01:18:39;1.40;;;1.30;;
8982;SDS011;20979;59.850;10.660;2023-05-02T01:21:09;2.03;;;1.47;;
8982;SDS011;20979;59.850;10.660;2023-05-02T01:23:40;1.43;;;1.33;;
8982;SDS011;20979;59.850;10.660;2023-05-02T01:26:14;1.40;;;1.27;;
8982;SDS011;20979;59.850;10.660;2023-05-02T01:28:55;1.83;;;1.27;;
8982;SDS011;20979;59.850;10.660;2023-05-02T01:31:23;1.33;;;1.23;;
8982;SDS011;20979;59.850;10.660;2023-05-02T01:33:51;1.33;;;1.23;;
8982;SDS011;20979;59.850;10.660;2023-05-02T01:36:20;1.40;;;1.30;;
8982;SDS011;20979;59.850;10.660;2023-05-02T01:38:48;1.10;;;1.00;;
8982;SDS011;20979;59.850;10.660;2023-05-02T01:41:16;1.63;;;1.30;;
8982;SDS011;20979;59.850;10.660;2023-05-02T01:43:44;1.23;;;1.20;;
8982;SDS011;20979;59.850;10.660;2023-05-02T01:46:13;2.30;;;1.20;;
8982;SDS011;20979;59.850;10.660;2023-05-02T01:48:41;1.20;;;1.00;;
8982;SDS011;20979;59.850;10.660;2023-05-02T01:51:10;2.00;;;1.10;;
8982;SDS011;20979;59.850;10.660;2023-05-02T01:53:38;2.70;;;1.20;;
8982;SDS011;20979;59.850;10.660;2023-05-02T01:56:06;1.23;;;1.07;;
8982;SDS011;20979;59.850;10.660;2023-05-02T01:58:33;0.90;;;0.90;;
8982;SDS011;20979;59.850;10.660;2023-05-02T02:01:02;1.37;;;1.20;;
8982;SDS011;20979;59.850;10.660;2023-05-02T02:03:31;1.37;;;1.27;;
8982;SDS011;20979;59.850;10.660;2023-05-02T02:05:58;2.33;;;1.10;;
8982;SDS011;20979;59.850;10.660;2023-05-02T02:08:27;1.07;;;1.07;;
8982;SDS011;20979;59.850;10.660;2023-05-02T02:10:56;1.37;;;1.10;;
8982;SDS011;20979;59.850;10.660;2023-05-02T02:13:25;2.10;;;1.10;;
8982;SDS011;20979;59.850;10.660;2023-05-02T02:15:56;0.93;;;0.80;;
8982;SDS011;20979;59.850;10.660;2023-05-02T02:18:25;1.00;;;1.00;;
8982;SDS011;20979;59.850;10.660;2023-05-02T02:20:55;1.00;;;1.00;;
8982;SDS011;20979;59.850;10.660;2023-05-02T02:23:25;0.90;;;0.90;;
8982;SDS011;20979;59.850;10.660;2023-05-02T02:25:52;1.23;;;1.13;;
8982;SDS011;20979;59.850;10.660;2023-05-02T02:28:20;1.30;;;1.20;;
8982;SDS011;20979;59.850;10.660;2023-05-02T02:30:47;1.33;;;1.10;;
8982;SDS011;20979;59.850;10.660;2023-05-02T02:33:15;1.00;;;1.00;;
8982;SDS011;20979;59.850;10.660;2023-05-02T02:35:43;1.47;;;1.10;;
8982;SDS011;20979;59.850;10.660;2023-05-02T02:38:19;1.20;;;0.83;;
8982;SDS011;20979;59.850;10.660;2023-05-02T02:40:48;1.40;;;1.17;;
8982;SDS011;20979;59.850;10.660;2023-05-02T02:43:19;2.77;;;1.33;;
8982;SDS011;20979;59.850;10.660;2023-05-02T02:45:53;1.13;;;1.00;;
8982;SDS011;20979;59.850;10.660;2023-05-02T02:48:24;1.33;;;1.10;;
8982;SDS011;20979;59.850;10.660;2023-05-02T02:50:58;1.30;;;0.87;;
8982;SDS011;20979;59.850;10.660;2023-05-02T02:53:32;1.63;;;1.10;;
8982;SDS011;20979;59.850;10.660;2023-05-02T02:56:01;1.73;;;1.03;;
8982;SDS011;20979;59.850;10.660;2023-05-02T02:58:35;1.03;;;0.97;;
8982;SDS011;20979;59.850;10.660;2023-05-02T03:01:05;1.37;;;1.00;;
8982;SDS011;20979;59.850;10.660;2023-05-02T03:03:34;1.90;;;1.30;;
8982;SDS011;20979;59.850;10.660;2023-05-02T03:06:02;0.90;;;0.90;;
8982;SDS011;20979;59.850;10.660;2023-05-02T03:08:38;1.20;;;1.20;;
8982;SDS011;20979;59.850;10.660;2023-05-02T03:11:06;1.00;;;1.00;;
8982;SDS011;20979;59.850;10.660;2023-05-02T03:13:33;1.63;;;1.13;;
8982;SDS011;20979;59.850;10.660;2023-05-02T03:18:46;0.80;;;0.80;;
8982;SDS011;20979;59.850;10.660;2023-05-02T03:21:13;1.00;;;1.00;;
8982;SDS011;20979;59.850;10.660;2023-05-02T03:23:42;1.33;;;1.10;;
8982;SDS011;20979;59.850;10.660;2023-05-02T03:26:09;0.87;;;0.87;;
8982;SDS011;20979;59.850;10.660;2023-05-02T03:28:37;1.50;;;1.13;;
8982;SDS011;20979;59.850;10.660;2023-05-02T03:31:05;2.13;;;1.10;;
8982;SDS011;20979;59.850;10.660;2023-05-02T03:33:32;1.13;;;1.03;;
8982;SDS011;20979;59.850;10.660;2023-05-02T03:36:00;3.20;;;1.30;;
8982;SDS011;20979;59.850;10.660;2023-05-02T03:38:28;0.90;;;0.90;;
8982;SDS011;20979;59.850;10.660;2023-05-02T03:40:57;1.13;;;1.00;;
8982;SDS011;20979;59.850;10.660;2023-05-02T03:43:24;2.10;;;1.20;;
8982;SDS011;20979;59.850;10.660;2023-05-02T03:45:51;2.63;;;1.00;;
8982;SDS011;20979;59.850;10.660;2023-05-02T03:48:19;1.60;;;1.10;;
8982;SDS011;20979;59.850;10.660;2023-05-02T03:50:46;1.23;;;1.13;;
8982;SDS011;20979;59.850;10.660;2023-05-02T03:53:14;0.90;;;0.90;;
8982;SDS011;20979;59.850;10.660;2023-05-02T03:55:41;2.40;;;1.20;;
8982;SDS011;20979;59.850;10.660;2023-05-02T03:58:10;1.20;;;1.10;;
8982;SDS011;20979;59.850;10.660;2023-05-02T04:00:38;1.23;;;1.13;;
8982;SDS011;20979;59.850;10.660;2023-05-02T04:03:05;1.07;;;1.07;;
8982;SDS011;20979;59.850;10.660;2023-05-02T04:05:32;1.03;;;1.03;;
8982;SDS011;20979;59.850;10.660;2023-05-02T04:08:00;1.10;;;1.00;;
8982;SDS011;20979;59.850;10.660;2023-05-02T04:10:27;1.87;;;1.07;;
8982;SDS011;20979;59.850;10.660;2023-05-02T04:12:55;1.13;;;1.00;;
8982;SDS011;20979;59.850;10.660;2023-05-02T04:15:23;1.60;;;1.00;;
8982;SDS011;20979;59.850;10.660;2023-05-02T04:17:51;2.00;;;1.20;;
8982;SDS011;20979;59.850;10.660;2023-05-02T04:20:18;2.37;;;1.23;;
8982;SDS011;20979;59.850;10.660;2023-05-02T04:22:45;1.20;;;1.20;;
8982;SDS011;20979;59.850;10.660;2023-05-02T04:25:14;1.40;;;1.10;;
8982;SDS011;20979;59.850;10.660;2023-05-02T04:27:41;1.93;;;1.83;;
8982;SDS011;20979;59.850;10.660;2023-05-02T04:30:09;1.67;;;1.37;;
8982;SDS011;20979;59.850;10.660;2023-05-02T04:32:38;1.97;;;1.30;;
8982;SDS011;20979;59.850;10.660;2023-05-02T04:35:05;1.40;;;1.30;;
8982;SDS011;20979;59.850;10.660;2023-05-02T04:37:34;1.13;;;1.00;;
8982;SDS011;20979;59.850;10.660;2023-05-02T04:40:01;1.63;;;1.20;;
8982;SDS011;20979;59.850;10.660;2023-05-02T04:42:28;2.83;;;1.20;;
8982;SDS011;20979;59.850;10.660;2023-05-02T04:44:56;2.53;;;1.13;;
8982;SDS011;20979;59.850;10.660;2023-05-02T04:47:23;1.50;;;1.00;;
8982;SDS011;20979;59.850;10.660;2023-05-02T04:49:52;1.27;;;1.17;;
8982;SDS011;20979;59.850;10.660;2023-05-02T04:52:19;3.70;;;1.27;;
8982;SDS011;20979;59.850;10.660;2023-05-02T04:54:47;1.23;;;1.20;;
8982;SDS011;20979;59.850;10.660;2023-05-02T04:57:14;3.63;;;1.30;;
8982;SDS011;20979;59.850;10.660;2023-05-02T04:59:41;1.67;;;0.93;;
8982;SDS011;20979;59.850;10.660;2023-05-02T05:02:09;1.30;;;1.20;;
8982;SDS011;20979;59.850;10.660;2023-05-02T05:04:37;1.83;;;1.20;;
8982;SDS011;20979;59.850;10.660;2023-05-02T05:07:06;1.43;;;1.00;;
8982;SDS011;20979;59.850;10.660;2023-05-02T05:09:33;1.30;;;1.10;;
8982;SDS011;20979;59.850;10.660;2023-05-02T05:12:00;1.37;;;0.87;;
8982;SDS011;20979;59.850;10.660;2023-05-02T05:14:28;1.07;;;1.03;;
8982;SDS011;20979;59.850;10.660;2023-05-02T05:16:56;1.50;;;1.30;;
8982;SDS011;20979;59.850;10.660;2023-05-02T05:19:23;1.70;;;1.30;;
8982;SDS011;20979;59.850;10.660;2023-05-02T05:21:52;1.20;;;1.10;;
8982;SDS011;20979;59.850;10.660;2023-05-02T05:24:21;1.40;;;1.30;;
8982;SDS011;20979;59.850;10.660;2023-05-02T05:26:48;1.53;;;1.00;;
8982;SDS011;20979;59.850;10.660;2023-05-02T05:29:15;3.27;;;1.47;;
8982;SDS011;20979;59.850;10.660;2023-05-02T05:31:43;1.00;;;1.00;;
8982;SDS011;20979;59.850;10.660;2023-05-02T05:34:12;1.00;;;1.00;;
8982;SDS011;20979;59.850;10.660;2023-05-02T05:36:39;1.87;;;1.20;;
8982;SDS011;20979;59.850;10.660;2023-05-02T05:39:07;1.20;;;1.10;;
8982;SDS011;20979;59.850;10.660;2023-05-02T05:41:36;3.10;;;1.30;;
8982;SDS011;20979;59.850;10.660;2023-05-02T05:44:03;1.10;;;1.00;;
8982;SDS011;20979;59.850;10.660;2023-05-02T05:46:30;1.47;;;1.07;;
8982;SDS011;20979;59.850;10.660;2023-05-02T05:48:58;3.27;;;1.07;;
8982;SDS011;20979;59.850;10.660;2023-05-02T05:51:25;3.27;;;1.30;;
8982;SDS011;20979;59.850;10.660;2023-05-02T05:53:53;1.60;;;1.00;;
8982;SDS011;20979;59.850;10.660;2023-05-02T05:56:20;1.90;;;1.17;;
8982;SDS011;20979;59.850;10.660;2023-05-02T05:58:49;1.43;;;0.80;;
8982;SDS011;20979;59.850;10.660;2023-05-02T06:01:17;2.90;;;1.00;;
8982;SDS011;20979;59.850;10.660;2023-05-02T06:03:44;1.10;;;0.93;;
8982;SDS011;20979;59.850;10.660;2023-05-02T06:06:11;0.90;;;0.90;;
8982;SDS011;20979;59.850;10.660;2023-05-02T06:08:39;1.20;;;0.97;;
8982;SDS011;20979;59.850;10.660;2023-05-02T06:11:07;2.80;;;1.00;;
8982;SDS011;20979;59.850;10.660;2023-05-02T06:13:35;1.03;;;0.97;;
8982;SDS011;20979;59.850;10.660;2023-05-02T06:16:05;2.10;;;0.90;;
8982;SDS011;20979;59.850;10.660;2023-05-02T06:18:32;0.60;;;0.60;;
8982;SDS011;20979;59.850;10.660;2023-05-02T06:21:02;0.60;;;0.60;;
8982;SDS011;20979;59.850;10.660;2023-05-02T06:26:54;1.10;;;1.00;;
8982;SDS011;20979;59.850;10.660;2023-05-02T06:29:21;0.70;;;0.50;;
8982;SDS011;20979;59.850;10.660;2023-05-02T06:32:14;2.50;;;0.83;;
8982;SDS011;20979;59.850;10.660;2023-05-02T06:34:48;0.53;;;0.53;;
8982;SDS011;20979;59.850;10.660;2023-05-02T06:37:42;1.77;;;0.80;;
8982;SDS011;20979;59.850;10.660;2023-05-02T06:40:10;0.60;;;0.60;;
8982;SDS011;20979;59.850;10.660;2023-05-02T06:42:37;1.00;;;0.90;;
8982;SDS011;20979;59.850;10.660;2023-05-02T06:45:05;2.00;;;0.73;;
8982;SDS011;20979;59.850;10.660;2023-05-02T06:47:34;1.10;;;0.93;;
8982;SDS011;20979;59.850;10.660;2023-05-02T06:50:01;2.23;;;0.83;;
8982;SDS011;20979;59.850;10.660;2023-05-02T06:52:29;1.80;;;0.80;;
8982;SDS011;20979;59.850;10.660;2023-05-02T06:54:56;0.83;;;0.80;;
8982;SDS011;20979;59.850;10.660;2023-05-02T06:57:24;0.77;;;0.60;;
8982;SDS011;20979;59.850;10.660;2023-05-02T06:59:51;0.67;;;0.60;;
8982;SDS011;20979;59.850;10.660;2023-05-02T07:02:19;0.70;;;0.57;;
8982;SDS011;20979;59.850;10.660;2023-05-02T07:04:48;0.73;;;0.73;;
8982;SDS011;20979;59.850;10.660;2023-05-02T07:07:15;1.57;;;0.80;;
8982;SDS011;20979;59.850;10.660;2023-05-02T07:09:44;0.67;;;0.60;;
8982;SDS011;20979;59.850;10.660;2023-05-02T07:12:12;0.60;;;0.60;;
8982;SDS011;20979;59.850;10.660;2023-05-02T07:14:39;1.17;;;0.73;;
8982;SDS011;20979;59.850;10.660;2023-05-02T07:17:07;0.50;;;0.50;;
8982;SDS011;20979;59.850;10.660;2023-05-02T07:19:35;1.90;;;0.70;;
8982;SDS011;20979;59.850;10.660;2023-05-02T07:22:04;0.80;;;0.60;;
8982;SDS011;20979;59.850;10.660;2023-05-02T07:24:32;1.33;;;0.57;;
8982;SDS011;20979;59.850;10.660;2023-05-02T07:26:59;0.50;;;0.50;;
8982;SDS011;20979;59.850;10.660;2023-05-02T07:29:27;0.60;;;0.60;;
8982;SDS011;20979;59.850;10.660;2023-05-02T07:31:57;0.70;;;0.67;;
8982;SDS011;20979;59.850;10.660;2023-05-02T07:34:25;1.33;;;0.70;;
8982;SDS011;20979;59.850;10.660;2023-05-02T07:36:58;0.93;;;0.60;;
8982;SDS011;20979;59.850;10.660;2023-05-02T07:39:44;0.90;;;0.60;;
8982;SDS011;20979;59.850;10.660;2023-05-02T07:42:12;0.57;;;0.57;;
8982;SDS011;20979;59.850;10.660;2023-05-02T07:52:58;1.17;;;0.47;;
8982;SDS011;20979;59.850;10.660;2023-05-02T07:55:27;2.00;;;0.60;;
8982;SDS011;20979;59.850;10.660;2023-05-02T07:57:57;1.00;;;0.40;;
8982;SDS011;20979;59.850;10.660;2023-05-02T08:00:25;0.50;;;0.50;;
8982;SDS011;20979;59.850;10.660;2023-05-02T08:02:56;0.73;;;0.53;;
8982;SDS011;20979;59.850;10.660;2023-05-02T08:05:23;0.57;;;0.57;;
8982;SDS011;20979;59.850;10.660;2023-05-02T08:07:51;0.83;;;0.60;;
8982;SDS011;20979;59.850;10.660;2023-05-02T08:10:19;1.23;;;0.47;;
8982;SDS011;20979;59.850;10.660;2023-05-02T08:12:49;0.47;;;0.47;;
8982;SDS011;20979;59.850;10.660;2023-05-02T08:15:17;2.07;;;0.60;;
8982;SDS011;20979;59.850;10.660;2023-05-02T08:17:45;0.87;;;0.50;;
8982;SDS011;20979;59.850;10.660;2023-05-02T08:20:12;0.83;;;0.60;;
8982;SDS011;20979;59.850;10.660;2023-05-02T08:23:12;0.87;;;0.70;;
8982;SDS011;20979;59.850;10.660;2023-05-02T08:25:28;0.83;;;0.63;;
8982;SDS011;20979;59.850;10.660;2023-05-02T08:27:57;0.77;;;0.40;;
8982;SDS011;20979;59.850;10.660;2023-05-02T08:30:26;0.43;;;0.40;;
8982;SDS011;20979;59.850;10.660;2023-05-02T08:32:54;5.65;;;0.88;;
8982;SDS011;20979;59.850;10.660;2023-05-02T08:35:23;0.60;;;0.30;;
8982;SDS011;20979;59.850;10.660;2023-05-02T08:37:51;0.30;;;0.30;;
8982;SDS011;20979;59.850;10.660;2023-05-02T08:40:18;0.73;;;0.43;;
8982;SDS011;20979;59.850;10.660;2023-05-02T08:42:53;0.60;;;0.50;;
8982;SDS011;20979;59.850;10.660;2023-05-02T08:45:30;0.50;;;0.50;;
8982;SDS011;20979;59.850;10.660;2023-05-02T08:48:04;2.00;;;0.50;;
8982;SDS011;20979;59.850;10.660;2023-05-02T08:50:46;1.75;;;0.68;;
8982;SDS011;20979;59.850;10.660;2023-05-02T08:53:47;1.30;;;0.57;;
8982;SDS011;20979;59.850;10.660;2023-05-02T08:56:15;2.13;;;0.60;;
8982;SDS011;20979;59.850;10.660;2023-05-02T08:58:43;1.33;;;0.50;;
8982;SDS011;20979;59.850;10.660;2023-05-02T09:01:12;0.47;;;0.40;;
8982;SDS011;20979;59.850;10.660;2023-05-02T09:03:42;0.57;;;0.57;;
8982;SDS011;20979;59.850;10.660;2023-05-02T09:09:40;1.85;;;0.55;;
8982;SDS011;20979;59.850;10.660;2023-05-02T09:12:25;0.90;;;0.40;;
8982;SDS011;20979;59.850;10.660;2023-05-02T09:18:08;0.63;;;0.52;;
8982;SDS011;20979;59.850;10.660;2023-05-02T09:20:58;0.57;;;0.50;;
8982;SDS011;20979;59.850;10.660;2023-05-02T09:23:33;0.73;;;0.37;;
8982;SDS011;20979;59.850;10.660;2023-05-02T09:26:00;1.60;;;0.83;;
8982;SDS011;20979;59.850;10.660;2023-05-02T09:28:46;0.70;;;0.45;;
8982;SDS011;20979;59.850;10.660;2023-05-02T09:40:53;3.42;;;0.47;;
8982;SDS011;20979;59.850;10.660;2023-05-02T09:44:39;1.60;;;0.50;;
8982;SDS011;20979;59.850;10.660;2023-05-02T09:47:07;0.93;;;0.40;;
8982;SDS011;20979;59.850;10.660;2023-05-02T09:49:42;0.47;;;0.30;;
8982;SDS011;20979;59.850;10.660;2023-05-02T09:52:10;0.57;;;0.35;;
8982;SDS011;20979;59.850;10.660;2023-05-02T09:54:38;0.47;;;0.47;;
8982;SDS011;20979;59.850;10.660;2023-05-02T10:00:38;0.40;;;0.30;;
8982;SDS011;20979;59.850;10.660;2023-05-02T10:06:05;0.28;;;0.20;;
8982;SDS011;20979;59.850;10.660;2023-05-02T10:11:48;0.30;;;0.30;;
8982;SDS011;20979;59.850;10.660;2023-05-02T10:14:19;0.20;;;0.20;;
8982;SDS011;20979;59.850;10.660;2023-05-02T10:31:54;0.35;;;0.30;;
8982;SDS011;20979;59.850;10.660;2023-05-02T10:43:45;0.55;;;0.20;;
8982;SDS011;20979;59.850;10.660;2023-05-02T10:43:47;1.35;;;0.40;;
8982;SDS011;20979;59.850;10.660;2023-05-02T11:35:14;3.03;;;0.43;;
8982;SDS011;20979;59.850;10.660;2023-05-02T11:41:00;0.95;;;0.32;;
8982;SDS011;20979;59.850;10.660;2023-05-02T11:46:29;0.30;;;0.30;;
8982;SDS011;20979;59.850;10.660;2023-05-02T12:08:38;0.47;;;0.32;;
8982;SDS011;20979;59.850;10.660;2023-05-02T12:11:29;0.40;;;0.28;;
8982;SDS011;20979;59.850;10.660;2023-05-02T12:20:28;0.32;;;0.32;;
8982;SDS011;20979;59.850;10.660;2023-05-02T12:26:20;0.30;;;0.30;;
8982;SDS011;20979;59.850;10.660;2023-05-02T12:50:08;0.47;;;0.20;;
8982;SDS011;20979;59.850;10.660;2023-05-02T12:56:19;0.30;;;0.30;;
8982;SDS011;20979;59.850;10.660;2023-05-02T13:21:17;0.20;;;0.20;;
8982;SDS011;20979;59.850;10.660;2023-05-02T13:32:57;0.30;;;0.20;;
8982;SDS011;20979;59.850;10.660;2023-05-02T13:35:34;0.10;;;0.10;;
8982;SDS011;20979;59.850;10.660;2023-05-02T13:41:15;0.20;;;0.10;;
8982;SDS011;20979;59.850;10.660;2023-05-02T13:56:05;1.65;;;0.30;;
8982;SDS011;20979;59.850;10.660;2023-05-02T14:16:53;0.20;;;0.20;;
8982;SDS011;20979;59.850;10.660;2023-05-02T14:19:27;0.60;;;0.10;;
8982;SDS011;20979;59.850;10.660;2023-05-02T14:22:30;0.20;;;0.20;;
8982;SDS011;20979;59.850;10.660;2023-05-02T14:28:20;0.10;;;0.10;;
8982;SDS011;20979;59.850;10.660;2023-05-02T14:30:48;0.20;;;0.20;;
8982;SDS011;20979;59.850;10.660;2023-05-02T14:36:10;1.40;;;0.35;;
8982;SDS011;20979;59.850;10.660;2023-05-02T14:39:00;3.70;;;0.70;;
8982;SDS011;20979;59.850;10.660;2023-05-02T14:41:44;1.13;;;0.30;;
8982;SDS011;20979;59.850;10.660;2023-05-02T14:44:11;0.80;;;0.37;;
8982;SDS011;20979;59.850;10.660;2023-05-02T14:46:53;1.43;;;0.37;;
8982;SDS011;20979;59.850;10.660;2023-05-02T14:50:07;1.60;;;0.47;;
8982;SDS011;20979;59.850;10.660;2023-05-02T14:56:10;0.87;;;0.13;;
8982;SDS011;20979;59.850;10.660;2023-05-02T14:58:37;0.20;;;0.20;;
8982;SDS011;20979;59.850;10.660;2023-05-02T15:01:05;0.50;;;0.20;;
8982;SDS011;20979;59.850;10.660;2023-05-02T15:03:33;0.27;;;0.20;;
8982;SDS011;20979;59.850;10.660;2023-05-02T15:06:18;0.30;;;0.20;;
8982;SDS011;20979;59.850;10.660;2023-05-02T15:08:46;0.73;;;0.20;;
8982;SDS011;20979;59.850;10.660;2023-05-02T15:11:15;0.60;;;0.20;;
8982;SDS011;20979;59.850;10.660;2023-05-02T15:13:43;0.20;;;0.20;;
8982;SDS011;20979;59.850;10.660;2023-05-02T15:16:11;0.20;;;0.17;;
8982;SDS011;20979;59.850;10.660;2023-05-02T15:18:39;0.23;;;0.23;;
8982;SDS011;20979;59.850;10.660;2023-05-02T15:21:07;0.60;;;0.27;;
8982;SDS011;20979;59.850;10.660;2023-05-02T15:23:35;1.30;;;0.30;;
8982;SDS011;20979;59.850;10.660;2023-05-02T15:26:03;0.10;;;0.10;;
8982;SDS011;20979;59.850;10.660;2023-05-02T15:28:32;0.20;;;0.20;;
8982;SDS011;20979;59.850;10.660;2023-05-02T15:31:00;0.20;;;0.17;;
8982;SDS011;20979;59.850;10.660;2023-05-02T15:33:27;0.20;;;0.20;;
8982;SDS011;20979;59.850;10.660;2023-05-02T15:35:55;0.53;;;0.40;;
8982;SDS011;20979;59.850;10.660;2023-05-02T15:41:42;0.30;;;0.30;;
8982;SDS011;20979;59.850;10.660;2023-05-02T15:50:20;0.40;;;0.10;;
8982;SDS011;20979;59.850;10.660;2023-05-02T15:52:49;0.20;;;0.20;;
8982;SDS011;20979;59.850;10.660;2023-05-02T15:55:17;0.30;;;0.23;;
8982;SDS011;20979;59.850;10.660;2023-05-02T15:57:44;0.43;;;0.27;;
8982;SDS011;20979;59.850;10.660;2023-05-02T16:00:15;0.40;;;0.17;;
8982;SDS011;20979;59.850;10.660;2023-05-02T16:02:46;0.20;;;0.20;;
8982;SDS011;20979;59.850;10.660;2023-05-02T16:11:21;3.63;;;0.30;;
8982;SDS011;20979;59.850;10.660;2023-05-02T16:13:48;1.33;;;0.20;;
8982;SDS011;20979;59.850;10.660;2023-05-02T16:16:16;1.03;;;0.20;;
8982;SDS011;20979;59.850;10.660;2023-05-02T16:18:44;1.07;;;0.30;;
8982;SDS011;20979;59.850;10.660;2023-05-02T16:21:39;0.33;;;0.33;;
8982;SDS011;20979;59.850;10.660;2023-05-02T16:24:07;1.70;;;0.30;;
8982;SDS011;20979;59.850;10.660;2023-05-02T16:26:36;1.37;;;0.30;;
8982;SDS011;20979;59.850;10.660;2023-05-02T16:29:03;1.00;;;0.40;;
8982;SDS011;20979;59.850;10.660;2023-05-02T16:31:31;0.30;;;0.30;;
8982;SDS011;20979;59.850;10.660;2023-05-02T16:33:59;0.93;;;0.20;;
8982;SDS011;20979;59.850;10.660;2023-05-02T16:36:27;0.40;;;0.20;;
8982;SDS011;20979;59.850;10.660;2023-05-02T16:38:55;1.03;;;0.30;;
8982;SDS011;20979;59.850;10.660;2023-05-02T16:41:23;0.33;;;0.27;;
8982;SDS011;20979;59.850;10.660;2023-05-02T16:43:52;0.60;;;0.27;;
8982;SDS011;20979;59.850;10.660;2023-05-02T16:46:19;2.20;;;0.40;;
8982;SDS011;20979;59.850;10.660;2023-05-02T16:48:47;1.33;;;0.90;;
8982;SDS011;20979;59.850;10.660;2023-05-02T16:51:14;0.57;;;0.30;;
8982;SDS011;20979;59.850;10.660;2023-05-02T16:53:42;0.97;;;0.40;;
8982;SDS011;20979;59.850;10.660;2023-05-02T16:56:10;0.27;;;0.20;;
8982;SDS011;20979;59.850;10.660;2023-05-02T16:58:40;0.63;;;0.37;;
8982;SDS011;20979;59.850;10.660;2023-05-02T17:01:23;0.53;;;0.40;;
8982;SDS011;20979;59.850;10.660;2023-05-02T17:03:50;0.93;;;0.33;;
8982;SDS011;20979;59.850;10.660;2023-05-02T17:06:44;0.23;;;0.23;;
8982;SDS011;20979;59.850;10.660;2023-05-02T17:09:12;0.33;;;0.30;;
8982;SDS011;20979;59.850;10.660;2023-05-02T17:11:40;1.13;;;0.40;;
8982;SDS011;20979;59.850;10.660;2023-05-02T17:14:08;0.60;;;0.30;;
8982;SDS011;20979;59.850;10.660;2023-05-02T17:16:39;0.83;;;0.20;;
8982;SDS011;20979;59.850;10.660;2023-05-02T17:19:07;0.37;;;0.27;;
8982;SDS011;20979;59.850;10.660;2023-05-02T17:21:37;0.40;;;0.30;;
8982;SDS011;20979;59.850;10.660;2023-05-02T17:24:18;1.43;;;0.23;;
8982;SDS011;20979;59.850;10.660;2023-05-02T17:26:46;2.83;;;0.80;;
8982;SDS011;20979;59.850;10.660;2023-05-02T17:29:13;0.20;;;0.20;;
8982;SDS011;20979;59.850;10.660;2023-05-02T17:31:42;0.40;;;0.30;;
8982;SDS011;20979;59.850;10.660;2023-05-02T17:34:12;0.20;;;0.20;;
8982;SDS011;20979;59.850;10.660;2023-05-02T17:36:40;1.20;;;0.30;;
8982;SDS011;20979;59.850;10.660;2023-05-02T17:39:37;1.93;;;0.33;;
8982;SDS011;20979;59.850;10.660;2023-05-02T17:42:04;0.30;;;0.23;;
8982;SDS011;20979;59.850;10.660;2023-05-02T17:44:32;1.17;;;0.20;;
8982;SDS011;20979;59.850;10.660;2023-05-02T17:47:06;1.63;;;0.20;;
8982;SDS011;20979;59.850;10.660;2023-05-02T17:49:34;1.13;;;0.30;;
8982;SDS011;20979;59.850;10.660;2023-05-02T17:52:01;0.70;;;0.30;;
8982;SDS011;20979;59.850;10.660;2023-05-02T17:54:36;0.17;;;0.17;;
8982;SDS011;20979;59.850;10.660;2023-05-02T17:57:03;0.20;;;0.20;;
8982;SDS011;20979;59.850;10.660;2023-05-02T17:59:31;0.33;;;0.20;;
8982;SDS011;20979;59.850;10.660;2023-05-02T18:01:59;0.50;;;0.30;;
8982;SDS011;20979;59.850;10.660;2023-05-02T18:04:29;0.80;;;0.50;;
8982;SDS011;20979;59.850;10.660;2023-05-02T18:06:58;0.33;;;0.33;;
8982;SDS011;20979;59.850;10.660;2023-05-02T18:09:25;0.20;;;0.20;;
8982;SDS011;20979;59.850;10.660;2023-05-02T18:11:56;0.40;;;0.30;;
8982;SDS011;20979;59.850;10.660;2023-05-02T18:14:25;0.47;;;0.40;;
8982;SDS011;20979;59.850;10.660;2023-05-02T18:16:52;0.20;;;0.20;;
8982;SDS011;20979;59.850;10.660;2023-05-02T18:19:20;0.30;;;0.30;;
8982;SDS011;20979;59.850;10.660;2023-05-02T18:21:49;0.20;;;0.20;;
8982;SDS011;20979;59.850;10.660;2023-05-02T18:24:17;0.47;;;0.20;;
8982;SDS011;20979;59.850;10.660;2023-05-02T18:26:46;0.20;;;0.20;;
8982;SDS011;20979;59.850;10.660;2023-05-02T18:29:14;0.27;;;0.27;;
8982;SDS011;20979;59.850;10.660;2023-05-02T18:31:42;0.30;;;0.20;;
8982;SDS011;20979;59.850;10.660;2023-05-02T18:34:10;2.57;;;0.40;;
8982;SDS011;20979;59.850;10.660;2023-05-02T18:36:38;0.47;;;0.47;;
8982;SDS011;20979;59.850;10.660;2023-05-02T18:39:06;0.40;;;0.40;;
8982;SDS011;20979;59.850;10.660;2023-05-02T18:41:34;1.20;;;0.40;;
8982;SDS011;20979;59.850;10.660;2023-05-02T18:44:03;0.83;;;0.40;;
8982;SDS011;20979;59.850;10.660;2023-05-02T18:46:32;0.90;;;0.40;;
8982;SDS011;20979;59.850;10.660;2023-05-02T18:48:59;0.93;;;0.20;;
8982;SDS011;20979;59.850;10.660;2023-05-02T18:51:27;0.47;;;0.40;;
8982;SDS011;20979;59.850;10.660;2023-05-02T18:53:54;0.30;;;0.30;;
8982;SDS011;20979;59.850;10.660;2023-05-02T18:56:23;0.40;;;0.20;;
8982;SDS011;20979;59.850;10.660;2023-05-02T18:59:13;0.30;;;0.30;;
8982;SDS011;20979;59.850;10.660;2023-05-02T19:02:01;1.27;;;0.30;;
8982;SDS011;20979;59.850;10.660;2023-05-02T19:06:08;0.53;;;0.50;;
8982;SDS011;20979;59.850;10.660;2023-05-02T19:07:49;1.80;;;0.40;;
8982;SDS011;20979;59.850;10.660;2023-05-02T19:10:17;1.23;;;0.50;;
8982;SDS011;20979;59.850;10.660;2023-05-02T19:12:46;1.30;;;0.40;;
8982;SDS011;20979;59.850;10.660;2023-05-02T19:15:13;0.37;;;0.37;;
8982;SDS011;20979;59.850;10.660;2023-05-02T19:17:41;0.47;;;0.47;;
8982;SDS011;20979;59.850;10.660;2023-05-02T19:20:10;0.40;;;0.40;;
8982;SDS011;20979;59.850;10.660;2023-05-02T19:22:40;0.40;;;0.40;;
8982;SDS011;20979;59.850;10.660;2023-05-02T19:25:15;0.40;;;0.40;;
8982;SDS011;20979;59.850;10.660;2023-05-02T19:27:55;0.83;;;0.40;;
8982;SDS011;20979;59.850;10.660;2023-05-02T19:30:28;0.90;;;0.30;;